createdAt,value
2023-02-24T00:01:49.732Z,7.90
2023-02-24T00:06:05.676Z,7.90
2023-02-24T00:10:21.167Z,7.80
2023-02-24T00:14:33.796Z,7.80
2023-02-24T00:18:49.393Z,7.70
2023-02-24T00:23:02.212Z,7.70
2023-02-24T00:27:28.679Z,7.70
2023-02-24T00:31:45.663Z,7.70
2023-02-24T00:35:51.018Z,7.60
2023-02-24T00:40:02.532Z,7.60
2023-02-24T00:44:08.663Z,7.60
2023-02-24T00:48:16.406Z,7.60
2023-02-24T00:52:20.570Z,7.60
2023-02-24T00:56:40.660Z,7.60
2023-02-24T01:00:53.597Z,7.70
2023-02-24T01:05:05.245Z,7.70
2023-02-24T01:09:14.458Z,7.60
2023-02-24T01:13:30.902Z,7.60
2023-02-24T01:17:49.532Z,7.60
2023-02-24T01:21:55.356Z,7.80
2023-02-24T01:26:02.180Z,7.60
2023-02-24T01:30:05.518Z,7.50
2023-02-24T01:34:14.215Z,7.60
2023-02-24T01:38:23.167Z,7.60
2023-02-24T01:42:27.438Z,7.60
2023-02-24T01:46:33.482Z,7.70
2023-02-24T01:50:40.898Z,7.70
2023-02-24T01:54:55.345Z,7.60
2023-02-24T01:58:59.349Z,7.60
2023-02-24T02:03:04.316Z,7.60
2023-02-24T02:07:10.260Z,7.60
2023-02-24T02:11:16.900Z,7.60
2023-02-24T02:15:23.838Z,7.60
2023-02-24T02:19:38.924Z,7.60
2023-02-24T02:23:54.245Z,7.50
2023-02-24T02:28:20.121Z,7.40
2023-02-24T02:32:54.144Z,7.30
2023-02-24T02:37:17.909Z,7.40
2023-02-24T02:41:28.615Z,7.50
2023-02-24T02:45:45.577Z,7.60
2023-02-24T02:50:09.252Z,7.60
2023-02-24T02:54:55.833Z,7.60
2023-02-24T02:59:27.097Z,7.70
2023-02-24T03:03:53.679Z,7.80
2023-02-24T03:07:59.964Z,7.80
2023-02-24T03:12:10.969Z,7.90
2023-02-24T03:16:18.606Z,8.00
2023-02-24T03:20:33.547Z,8.00
2023-02-24T03:24:39.156Z,8.10
2023-02-24T03:28:59.901Z,8.10
2023-02-24T03:33:36.181Z,8.20
2023-02-24T03:37:46.347Z,8.20
2023-02-24T03:42:06.555Z,8.00
2023-02-24T03:46:21.269Z,7.90
2023-02-24T03:50:32.731Z,7.80
2023-02-24T03:54:54.054Z,7.90
2023-02-24T03:59:23.866Z,7.90
2023-02-24T04:03:51.557Z,7.90
2023-02-24T04:08:11.546Z,7.90
2023-02-24T04:12:15.900Z,8.00
2023-02-24T04:16:28.309Z,8.00
2023-02-24T04:20:37.925Z,8.10
2023-02-24T04:25:00.726Z,8.10
2023-02-24T04:29:14.065Z,8.00
2023-02-24T04:33:19.938Z,8.00
2023-02-24T04:37:24.366Z,7.90
2023-02-24T04:41:36.706Z,7.90
2023-02-24T04:45:43.470Z,7.90
2023-02-24T04:49:57.115Z,8.00
2023-02-24T04:54:08.094Z,8.00
2023-02-24T04:58:14.174Z,7.90
2023-02-24T05:02:39.497Z,7.90
2023-02-24T05:06:44.233Z,7.90
2023-02-24T05:11:01.463Z,7.90
2023-02-24T05:15:40.419Z,7.90
2023-02-24T05:20:26.326Z,8.00
2023-02-24T05:24:37.915Z,8.00
2023-02-24T05:28:41.296Z,8.10
2023-02-24T05:32:45.237Z,8.10
2023-02-24T05:36:49.256Z,8.20
2023-02-24T05:51:42.079Z,8.30
2023-02-24T05:56:58.342Z,8.30
2023-02-24T06:01:38.459Z,8.30
2023-02-24T06:06:12.222Z,8.40
2023-02-24T06:10:47.343Z,8.50
2023-02-24T06:15:40.134Z,8.50
2023-02-24T06:29:30.012Z,8.10
2023-02-24T06:33:58.855Z,8.10
2023-02-24T06:38:04.570Z,8.20
2023-02-24T06:42:09.145Z,8.20
2023-02-24T06:46:13.105Z,8.30
2023-02-24T06:50:21.473Z,8.40
2023-02-24T06:55:22.860Z,8.50
2023-02-24T06:59:30.160Z,8.50
2023-02-24T07:04:04.160Z,8.50
2023-02-24T07:08:19.375Z,8.50
2023-02-24T07:12:22.369Z,8.60
2023-02-24T07:16:45.779Z,8.60
2023-02-24T07:20:56.928Z,8.80
2023-02-24T07:29:51.785Z,9.00
2023-02-24T07:33:58.689Z,9.10
2023-02-24T07:38:05.075Z,9.20
2023-02-24T07:42:08.425Z,9.30
2023-02-24T07:46:29.579Z,9.30
2023-02-24T07:50:47.473Z,9.40
2023-02-24T07:54:50.404Z,9.30
2023-02-24T07:59:03.742Z,9.40
2023-02-24T08:03:06.608Z,9.50
2023-02-24T08:07:14.593Z,9.50
2023-02-24T08:11:17.831Z,9.50
2023-02-24T08:15:34.500Z,9.50
2023-02-24T08:19:43.093Z,9.50
2023-02-24T08:23:46.845Z,9.50
2023-02-24T08:28:12.108Z,9.60
2023-02-24T08:32:20.337Z,9.50
2023-02-24T08:36:28.897Z,9.50
2023-02-24T08:40:32.796Z,9.50
2023-02-24T08:44:37.480Z,9.50
2023-02-24T08:48:46.263Z,9.60
2023-02-24T08:52:50.167Z,9.80
2023-02-24T08:56:56.357Z,9.90
2023-02-24T09:00:59.891Z,10.00
2023-02-24T09:05:04.982Z,10.20
2023-02-24T09:09:23.359Z,10.30
2023-02-24T09:13:33.179Z,10.30
2023-02-24T09:17:45.260Z,10.40
2023-02-24T09:21:48.301Z,10.50
2023-02-24T09:25:54.473Z,10.50
2023-02-24T09:30:08.321Z,10.60
2023-02-24T09:34:18.681Z,10.70
2023-02-24T09:38:36.980Z,10.90
2023-02-24T09:42:48.748Z,11.00
2023-02-24T09:46:57.677Z,11.00
2023-02-24T09:51:06.006Z,11.00
2023-02-24T09:55:27.213Z,11.00
2023-02-24T09:59:41.888Z,11.10
2023-02-24T10:04:20.560Z,11.10
2023-02-24T10:13:16.939Z,11.20
2023-02-24T10:17:49.769Z,11.30
2023-02-24T10:22:03.202Z,11.30
2023-02-24T10:26:59.669Z,11.30
2023-02-24T10:31:25.860Z,11.20
2023-02-24T10:36:11.268Z,11.20
2023-02-24T10:40:30.389Z,11.30
2023-02-24T10:44:36.560Z,11.20
2023-02-24T10:48:41.790Z,11.30
2023-02-24T10:52:57.772Z,11.30
2023-02-24T10:57:10.864Z,11.30
2023-02-24T11:01:13.897Z,11.40
2023-02-24T11:05:35.931Z,11.50
2023-02-24T11:09:52.816Z,11.60
2023-02-24T11:14:15.118Z,11.70
2023-02-24T11:18:19.583Z,11.70
2023-02-24T11:22:24.936Z,11.60
2023-02-24T11:26:38.546Z,11.60
2023-02-24T11:30:46.298Z,11.60
2023-02-24T11:34:55.751Z,11.60
2023-02-24T11:39:29.324Z,11.70
2023-02-24T11:43:34.855Z,11.80
2023-02-24T11:47:43.212Z,11.70
2023-02-24T11:51:46.283Z,11.70
2023-02-24T11:55:54.410Z,11.70
2023-02-24T12:00:16.178Z,11.60
2023-02-24T12:04:29.820Z,11.60
2023-02-24T12:08:35.081Z,11.60
2023-02-24T12:12:41.617Z,11.60
2023-02-24T12:16:47.980Z,11.60
2023-02-24T12:21:08.411Z,11.70
2023-02-24T12:25:11.989Z,11.80
2023-02-24T12:29:30.386Z,11.80
2023-02-24T12:33:36.256Z,11.80
2023-02-24T12:37:39.001Z,11.90
2023-02-24T12:41:44.920Z,12.00
2023-02-24T12:46:06.578Z,12.00
2023-02-24T12:50:13.013Z,12.10
2023-02-24T12:54:16.098Z,12.20
2023-02-24T12:58:18.773Z,12.30
2023-02-24T13:02:27.498Z,12.10
2023-02-24T13:06:37.040Z,12.10
2023-02-24T13:11:02.715Z,12.00
2023-02-24T13:15:06.440Z,12.00
2023-02-24T13:19:19.884Z,12.00
2023-02-24T13:23:22.769Z,12.00
2023-02-24T13:27:25.681Z,12.00
2023-02-24T13:31:39.789Z,12.00
2023-02-24T13:35:42.484Z,12.00
2023-02-24T13:39:45.303Z,12.00
2023-02-24T13:44:23.529Z,12.00
2023-02-24T13:48:45.530Z,11.90
2023-02-24T13:52:48.242Z,12.00
2023-02-24T13:56:51.503Z,12.00
2023-02-24T14:00:54.175Z,12.00
2023-02-24T14:04:58.438Z,12.00
2023-02-24T14:09:02.260Z,12.10
2023-02-24T14:13:19.893Z,12.00
2023-02-24T14:17:41.121Z,12.10
2023-02-24T14:21:54.483Z,12.10
2023-02-24T14:26:12.502Z,12.10
2023-02-24T14:30:26.968Z,12.00
2023-02-24T14:34:30.910Z,12.00
2023-02-24T14:38:35.998Z,12.00
2023-02-24T14:42:46.632Z,12.00
2023-02-24T14:46:52.744Z,12.00
2023-02-24T14:50:58.952Z,12.00
2023-02-24T14:55:06.172Z,12.10
2023-02-24T14:59:14.270Z,12.10
2023-02-24T15:03:29.660Z,12.10
2023-02-24T15:07:33.652Z,12.10
2023-02-24T15:11:37.362Z,12.00
2023-02-24T15:15:40.189Z,12.00
2023-02-24T15:19:46.453Z,11.90
2023-02-24T15:23:49.618Z,12.00
2023-02-24T15:27:59.895Z,12.00
2023-02-24T15:32:04.376Z,12.10
2023-02-24T15:36:11.452Z,12.10
2023-02-24T15:40:21.841Z,12.10
2023-02-24T15:44:31.836Z,12.00
2023-02-24T15:48:34.646Z,12.00
2023-02-24T15:52:37.620Z,12.00
2023-02-24T15:56:41.362Z,12.00
2023-02-24T16:00:45.619Z,12.00
2023-02-24T16:04:50.055Z,12.00
2023-02-24T16:08:53.857Z,12.00
2023-02-24T16:12:57.512Z,11.90
2023-02-24T16:17:07.306Z,12.00
2023-02-24T16:21:10.022Z,12.00
2023-02-24T16:25:17.383Z,11.90
2023-02-24T16:29:20.398Z,12.00
2023-02-24T16:33:24.012Z,12.00
2023-02-24T16:37:28.015Z,12.00
2023-02-24T16:41:31.430Z,12.00
2023-02-24T16:45:38.076Z,12.00
2023-02-24T16:49:41.102Z,12.00
2023-02-24T16:53:43.852Z,12.00
2023-02-24T16:58:14.141Z,12.00
2023-02-24T17:03:19.328Z,12.00
2023-02-24T17:07:36.599Z,12.00
2023-02-24T17:11:39.350Z,12.00
2023-02-24T17:15:42.090Z,12.00
2023-02-24T17:19:44.692Z,12.00
2023-02-24T17:23:47.338Z,12.00
2023-02-24T17:27:50.376Z,11.90
2023-02-24T17:31:53.236Z,11.90
2023-02-24T17:35:55.969Z,11.80
2023-02-24T17:39:58.736Z,11.80
2023-02-24T17:44:01.491Z,11.80
2023-02-24T17:48:04.322Z,11.80
2023-02-24T17:52:07.066Z,11.80
2023-02-24T17:56:10.186Z,11.80
2023-02-24T18:00:13.169Z,11.80
2023-02-24T18:04:15.929Z,11.60
2023-02-24T18:08:18.571Z,11.60
2023-02-24T18:12:21.389Z,11.50
2023-02-24T18:16:24.544Z,11.50
2023-02-24T18:20:27.494Z,11.50
2023-02-24T18:24:30.104Z,11.50
2023-02-24T18:28:33.208Z,11.50
2023-02-24T18:32:36.162Z,11.50
2023-02-24T18:36:39.097Z,11.50
2023-02-24T18:40:42.853Z,11.50
2023-02-24T18:44:48.023Z,11.50
2023-02-24T18:48:55.314Z,11.40
2023-02-24T18:52:58.166Z,11.30
2023-02-24T18:57:00.946Z,11.20
2023-02-24T19:01:11.395Z,11.20
2023-02-24T19:05:15.470Z,11.10
2023-02-24T19:09:21.915Z,11.10
2023-02-24T19:13:24.707Z,11.10
2023-02-24T19:17:27.428Z,11.10
2023-02-24T19:21:31.241Z,11.00
2023-02-24T19:25:34.290Z,11.00
2023-02-24T19:29:37.017Z,11.00
2023-02-24T19:33:40.031Z,10.90
2023-02-24T19:37:42.710Z,11.00
2023-02-24T19:41:46.525Z,11.00
2023-02-24T19:45:50.185Z,11.00
2023-02-24T19:49:52.851Z,11.00
2023-02-24T19:53:57.297Z,11.10
2023-02-24T19:58:00.135Z,11.10
2023-02-24T20:02:02.854Z,11.10
2023-02-24T20:06:05.867Z,11.10
2023-02-24T20:10:09.099Z,11.10
2023-02-24T20:14:12.845Z,11.00
2023-02-24T20:18:15.518Z,11.00
2023-02-24T20:22:18.207Z,11.10
2023-02-24T20:26:21.546Z,11.00
2023-02-24T20:30:24.459Z,11.10
2023-02-24T20:34:27.992Z,11.10
2023-02-24T20:38:31.017Z,11.10
2023-02-24T20:42:33.851Z,11.10
2023-02-24T20:46:36.518Z,11.00
2023-02-24T20:50:39.141Z,11.00
2023-02-24T20:54:43.385Z,11.00
2023-02-24T20:58:46.889Z,11.00
2023-02-24T21:02:49.495Z,10.90
2023-02-24T21:06:53.073Z,10.80
2023-02-24T21:10:55.897Z,10.80
2023-02-24T21:14:58.810Z,10.80
2023-02-24T21:19:01.647Z,10.80
2023-02-24T21:23:07.527Z,10.60
2023-02-24T21:27:10.267Z,10.60
2023-02-24T21:31:17.368Z,10.60
2023-02-24T21:35:20.458Z,10.60
2023-02-24T21:39:23.157Z,10.60
2023-02-24T21:43:26.632Z,10.60
2023-02-24T21:47:32.421Z,10.60
2023-02-24T21:51:36.393Z,10.60
2023-02-24T21:55:39.911Z,10.60
2023-02-24T21:59:43.932Z,10.70
2023-02-24T22:03:47.140Z,10.70
2023-02-24T22:07:50.232Z,10.70
2023-02-24T22:11:52.931Z,10.70
2023-02-24T22:15:58.351Z,10.60
2023-02-24T22:20:00.984Z,10.60
2023-02-24T22:24:04.060Z,10.60
2023-02-24T22:28:06.763Z,10.70
2023-02-24T22:32:09.567Z,10.60
2023-02-24T22:36:15.788Z,10.60
2023-02-24T22:40:20.503Z,10.60
2023-02-24T22:44:24.725Z,10.60
2023-02-24T22:48:27.938Z,10.60
2023-02-24T22:52:30.577Z,10.60
2023-02-24T22:56:33.393Z,10.60
2023-02-24T23:00:36.131Z,10.60
2023-02-24T23:04:38.973Z,10.60
2023-02-24T23:08:42.625Z,10.50
2023-02-24T23:12:45.328Z,10.50
2023-02-24T23:16:53.633Z,10.60
2023-02-24T23:21:05.059Z,10.60
2023-02-24T23:25:08.537Z,10.60
2023-02-24T23:29:12.410Z,10.60
2023-02-24T23:33:15.313Z,10.70
2023-02-24T23:37:17.980Z,10.70
2023-02-24T23:41:20.734Z,10.60
2023-02-24T23:45:24.909Z,10.70
2023-02-24T23:49:39.100Z,10.70
2023-02-24T23:53:46.228Z,10.70
2023-02-24T23:57:51.077Z,10.70
